Terminal Aerodrome Forecast
Issued by NWS New Orleans/Baton Rouge, LA

Home | Current Version | Previous Version | Text Only | Print | Product List | Glossary On
Versions: 1 2 3 4 5 6 7 8 9 10 11
000
FTUS44 KLIX 261138
TAFNEW
TAF
KNEW 261138Z 2612/2712 30019KT P6SM VCSH SCT013 BKN030 OVC080
     FM261300 29015G25KT P6SM VCSH OVC010
     FM261500 30014KT P6SM BKN040
     FM261600 30013G21KT P6SM SCT060
     FM270200 33008KT P6SM FEW250=

USA.gov is the U.S. government's official web portal to all federal, state and local government web resources and services.